createdAt,value
2023-04-20T00:02:17.635Z,77.50
2023-04-20T00:04:44.165Z,93.75
2023-04-20T00:07:10.998Z,81.50
2023-04-20T00:09:37.462Z,72.25
2023-04-20T00:12:03.934Z,77.25
2023-04-20T00:14:30.325Z,78.50
2023-04-20T00:16:56.760Z,75.75
2023-04-20T00:19:23.300Z,70.25
2023-04-20T00:21:50.038Z,76.00
2023-04-20T00:24:16.344Z,71.25
2023-04-20T00:26:42.771Z,77.75
2023-04-20T00:29:09.109Z,73.00
2023-04-20T00:31:35.486Z,72.50
2023-04-20T00:34:01.908Z,76.50
2023-04-20T00:36:28.216Z,78.75
2023-04-20T00:38:54.554Z,72.75
2023-04-20T00:41:21.376Z,71.75
2023-04-20T00:43:51.625Z,73.00
2023-04-20T00:46:18.292Z,66.50
2023-04-20T00:48:44.777Z,74.25
2023-04-20T00:51:11.532Z,76.25
2023-04-20T00:53:37.931Z,74.00
2023-04-20T00:56:04.588Z,76.00
2023-04-20T00:58:30.937Z,78.00
2023-04-20T01:00:57.620Z,74.50
2023-04-20T01:03:24.191Z,73.00
2023-04-20T01:05:51.691Z,76.50
2023-04-20T01:08:18.079Z,80.75
2023-04-20T01:10:44.642Z,74.00
2023-04-20T01:13:11.118Z,72.75
2023-04-20T01:15:37.537Z,78.50
2023-04-20T01:18:05.950Z,75.75
2023-04-20T01:20:32.885Z,78.25
2023-04-20T01:22:59.286Z,74.75
2023-04-20T01:25:25.732Z,70.25
2023-04-20T01:27:52.111Z,72.00
2023-04-20T01:30:18.599Z,72.25
2023-04-20T01:32:45.596Z,67.00
2023-04-20T01:35:12.191Z,73.50
2023-04-20T01:37:39.216Z,68.25
2023-04-20T01:40:06.429Z,72.00
2023-04-20T01:42:32.774Z,69.75
2023-04-20T01:44:59.188Z,73.25
2023-04-20T01:47:28.297Z,71.00
2023-04-20T01:49:54.730Z,69.50
2023-04-20T01:52:21.156Z,70.25
2023-04-20T01:54:47.464Z,66.00
2023-04-20T01:57:13.798Z,70.00
2023-04-20T01:59:40.401Z,73.75
2023-04-20T02:02:07.048Z,70.75
2023-04-20T02:04:33.518Z,67.75
2023-04-20T02:06:59.819Z,72.00
2023-04-20T02:09:26.293Z,69.25
2023-04-20T02:11:52.695Z,66.75
2023-04-20T02:14:19.035Z,70.25
2023-04-20T02:16:47.990Z,68.75
2023-04-20T02:19:14.804Z,66.25
2023-04-20T02:21:41.401Z,70.50
2023-04-20T02:24:07.885Z,73.00
2023-04-20T02:26:34.270Z,68.00
2023-04-20T02:29:00.656Z,77.00
2023-04-20T02:31:27.155Z,75.50
2023-04-20T02:33:53.720Z,67.75
2023-04-20T02:36:20.209Z,75.50
2023-04-20T02:38:46.644Z,69.75
2023-04-20T02:41:13.048Z,72.00
2023-04-20T02:43:39.689Z,70.25
2023-04-20T02:46:06.154Z,67.25
2023-04-20T02:48:32.596Z,68.25
2023-04-20T02:50:58.989Z,69.00
2023-04-20T02:53:25.722Z,63.00
2023-04-20T02:55:52.035Z,63.75
2023-04-20T02:58:18.764Z,72.50
2023-04-20T03:00:46.036Z,67.75
2023-04-20T03:03:12.631Z,65.00
2023-04-20T03:05:39.053Z,66.50
2023-04-20T03:08:07.369Z,68.75
2023-04-20T03:10:33.869Z,69.25
2023-04-20T03:13:00.249Z,64.25
2023-04-20T03:15:26.684Z,67.50
2023-04-20T03:17:53.356Z,72.50
2023-04-20T03:20:19.814Z,71.50
2023-04-20T03:22:46.515Z,72.00
2023-04-20T03:25:13.059Z,68.50
2023-04-20T03:27:39.502Z,74.25
2023-04-20T03:30:07.003Z,69.75
2023-04-20T03:32:33.421Z,68.50
2023-04-20T03:35:02.212Z,71.00
2023-04-20T03:37:28.585Z,69.00
2023-04-20T03:39:55.151Z,69.75
2023-04-20T03:42:21.558Z,68.25
2023-04-20T03:44:47.887Z,72.00
2023-04-20T03:47:14.378Z,65.75
2023-04-20T03:49:40.914Z,64.50
2023-04-20T03:52:07.389Z,74.25
2023-04-20T03:54:33.742Z,72.00
2023-04-20T03:57:00.173Z,77.00
2023-04-20T03:59:26.517Z,76.00
2023-04-20T04:01:52.977Z,76.50
2023-04-20T04:04:19.704Z,72.25
2023-04-20T04:06:46.389Z,75.25
2023-04-20T04:09:12.830Z,74.75
2023-04-20T04:11:39.201Z,77.00
2023-04-20T04:14:05.616Z,68.50
2023-04-20T04:16:32.656Z,67.75
2023-04-20T04:18:59.186Z,70.50
2023-04-20T04:21:25.839Z,64.75
2023-04-20T04:23:52.176Z,68.50
2023-04-20T04:26:21.448Z,77.75
2023-04-20T04:28:49.362Z,77.00
2023-04-20T04:31:17.475Z,76.50
2023-04-20T04:33:45.754Z,68.00
2023-04-20T04:36:12.431Z,67.25
2023-04-20T04:38:38.917Z,64.25
2023-04-20T04:41:05.358Z,63.50
2023-04-20T04:43:33.329Z,62.25
2023-04-20T04:45:59.953Z,82.75
2023-04-20T04:48:26.270Z,67.00
2023-04-20T04:50:52.658Z,61.00
2023-04-20T04:53:19.056Z,58.25
2023-04-20T04:55:46.544Z,64.25
2023-04-20T04:58:12.996Z,59.75
2023-04-20T05:00:40.371Z,57.25
2023-04-20T05:03:06.911Z,60.25
2023-04-20T05:05:33.534Z,69.75
2023-04-20T05:08:00.037Z,58.00
2023-04-20T05:10:26.476Z,79.50
2023-04-20T05:12:52.960Z,67.75
2023-04-20T05:15:21.770Z,66.00
2023-04-20T05:17:49.768Z,68.75
2023-04-20T05:20:16.307Z,53.25
2023-04-20T05:22:42.660Z,55.25
2023-04-20T05:25:09.678Z,58.50
2023-04-20T05:27:37.339Z,61.50
2023-04-20T05:30:17.095Z,64.25
2023-04-20T05:32:46.114Z,58.25
2023-04-20T05:35:13.779Z,52.75
2023-04-20T05:37:40.142Z,53.67
2023-04-20T05:40:06.968Z,46.67
2023-04-20T05:42:33.437Z,48.00
2023-04-20T05:44:59.934Z,43.67
2023-04-20T05:47:27.586Z,47.75
2023-04-20T05:49:54.077Z,49.67
2023-04-20T05:52:20.462Z,46.00
2023-04-20T05:54:46.845Z,51.33
2023-04-20T05:57:13.195Z,46.00
2023-04-20T05:59:39.643Z,47.75
2023-04-20T06:02:06.375Z,42.75
2023-04-20T06:04:32.993Z,39.50
2023-04-20T06:07:00.226Z,39.25
2023-04-20T06:09:26.629Z,47.25
2023-04-20T06:11:53.069Z,49.25
2023-04-20T06:14:19.498Z,41.00
2023-04-20T06:16:45.950Z,37.75
2023-04-20T06:19:12.406Z,42.50
2023-04-20T06:21:38.865Z,35.25
2023-04-20T06:24:05.351Z,40.00
2023-04-20T06:26:31.743Z,34.75
2023-04-20T06:28:58.163Z,33.75
2023-04-20T06:31:24.657Z,31.25
2023-04-20T06:33:51.085Z,24.75
2023-04-20T06:36:17.439Z,35.25
2023-04-20T06:38:43.810Z,30.25
2023-04-20T06:41:10.291Z,32.50
2023-04-20T06:43:36.738Z,31.50
2023-04-20T06:46:03.058Z,34.75
2023-04-20T06:48:32.826Z,25.25
2023-04-20T06:50:59.568Z,39.75
2023-04-20T06:53:26.292Z,37.00
2023-04-20T06:55:55.829Z,31.50
2023-04-20T06:58:22.327Z,29.25
2023-04-20T07:00:48.775Z,35.00
2023-04-20T07:03:15.497Z,33.75
2023-04-20T07:05:42.015Z,32.50
2023-04-20T07:08:09.566Z,35.75
2023-04-20T07:10:36.062Z,32.00
2023-04-20T07:13:02.483Z,34.50
2023-04-20T07:15:28.953Z,73.50
2023-04-20T07:17:55.522Z,68.75
2023-04-20T07:20:22.207Z,21.00
2023-04-20T07:22:48.682Z,50.33
2023-04-20T07:25:15.153Z,63.75
2023-04-20T07:27:41.691Z,45.00
2023-04-20T07:30:08.994Z,37.25
2023-04-20T07:32:36.181Z,40.75
2023-04-20T07:35:03.427Z,44.67
2023-04-20T07:37:29.938Z,51.00
2023-04-20T07:39:56.308Z,55.67
2023-04-20T07:42:22.742Z,48.25
2023-04-20T07:44:49.380Z,49.33
2023-04-20T07:47:15.972Z,28.50
2023-04-20T07:49:42.660Z,31.50
2023-04-20T07:52:16.399Z,40.50
2023-04-20T07:54:44.353Z,24.25
2023-04-20T07:57:11.255Z,22.75
2023-04-20T07:59:40.892Z,37.50
2023-04-20T08:02:07.826Z,30.00
2023-04-20T08:04:36.114Z,24.25
2023-04-20T08:07:02.764Z,23.75
2023-04-20T08:09:29.765Z,24.50
2023-04-20T08:11:56.774Z,24.00
2023-04-20T08:14:23.310Z,24.25
2023-04-20T08:16:49.732Z,25.75
2023-04-20T08:19:16.207Z,23.50
2023-04-20T08:21:43.029Z,27.00
2023-04-20T08:24:09.807Z,26.00
2023-04-20T08:26:36.562Z,24.00
2023-04-20T08:29:03.785Z,13.00
2023-04-20T08:31:30.306Z,20.75
2023-04-20T08:33:56.700Z,22.75
2023-04-20T08:36:23.743Z,19.25
2023-04-20T08:38:54.676Z,20.75
2023-04-20T08:41:21.279Z,23.75
2023-04-20T08:43:48.620Z,17.00
2023-04-20T08:46:15.129Z,15.75
2023-04-20T08:48:42.060Z,19.75
2023-04-20T08:51:08.478Z,15.50
2023-04-20T08:53:34.950Z,13.25
2023-04-20T08:56:01.456Z,19.25
2023-04-20T08:58:32.320Z,9.50
2023-04-20T09:01:00.793Z,15.00
2023-04-20T09:03:34.454Z,17.50
2023-04-20T09:06:01.055Z,13.25
2023-04-20T09:08:37.710Z,18.25
2023-04-20T09:11:04.246Z,13.50
2023-04-20T09:13:30.788Z,17.00
2023-04-20T09:15:57.210Z,15.75
2023-04-20T09:18:26.225Z,16.25
2023-04-20T09:20:52.830Z,12.25
2023-04-20T09:23:20.368Z,20.75
2023-04-20T09:25:50.052Z,22.50
2023-04-20T09:28:17.964Z,14.75
2023-04-20T09:30:48.982Z,11.75
2023-04-20T09:33:17.487Z,8.50
2023-04-20T09:35:45.004Z,9.00
2023-04-20T09:38:15.036Z,8.75
2023-04-20T09:40:41.516Z,8.75
2023-04-20T09:43:20.571Z,6.50
2023-04-20T09:45:47.286Z,7.00
2023-04-20T09:48:19.021Z,5.25
2023-04-20T09:50:49.630Z,10.25
2023-04-20T09:53:17.961Z,9.50
2023-04-20T09:55:48.738Z,8.00
2023-04-20T09:58:17.515Z,7.50
2023-04-20T10:00:44.026Z,5.50
2023-04-20T10:03:11.282Z,10.25
2023-04-20T10:05:39.599Z,11.50
2023-04-20T10:08:06.322Z,11.00
2023-04-20T10:10:43.241Z,10.50
2023-04-20T10:13:09.770Z,9.00
2023-04-20T10:15:37.006Z,14.25
2023-04-20T10:18:14.483Z,9.75
2023-04-20T10:20:41.228Z,9.00
2023-04-20T10:23:10.046Z,7.00
2023-04-20T10:25:37.088Z,10.00
2023-04-20T10:28:06.314Z,6.25
2023-04-20T10:30:33.177Z,11.25
2023-04-20T10:33:18.263Z,10.75
2023-04-20T10:35:59.083Z,9.75
2023-04-20T10:38:32.509Z,8.00
2023-04-20T10:41:06.123Z,7.25
2023-04-20T10:43:32.523Z,9.00
2023-04-20T10:45:58.964Z,9.50
2023-04-20T10:48:25.410Z,7.75
2023-04-20T10:50:51.882Z,8.25
2023-04-20T10:53:22.445Z,8.50
2023-04-20T10:55:58.083Z,9.00
2023-04-20T10:58:24.975Z,8.00
2023-04-20T11:01:01.293Z,9.50
2023-04-20T11:03:29.127Z,8.00
2023-04-20T11:05:57.405Z,9.50
2023-04-20T11:08:23.847Z,12.00
2023-04-20T11:10:50.415Z,7.00
2023-04-20T11:13:23.953Z,7.25
2023-04-20T11:15:50.355Z,7.25
2023-04-20T11:18:16.990Z,6.00
2023-04-20T11:20:55.975Z,7.00
2023-04-20T11:23:23.651Z,7.00
2023-04-20T11:25:54.387Z,7.00
2023-04-20T11:28:21.012Z,8.50
2023-04-20T11:30:49.636Z,7.50
2023-04-20T11:33:24.880Z,5.00
2023-04-20T11:35:51.815Z,6.25
2023-04-20T11:38:26.468Z,7.50
2023-04-20T11:40:52.962Z,7.25
2023-04-20T11:43:19.357Z,6.75
2023-04-20T11:45:45.809Z,4.75
2023-04-20T11:48:12.282Z,7.50
2023-04-20T11:50:41.029Z,6.25
2023-04-20T11:53:10.387Z,5.50
2023-04-20T11:55:37.037Z,6.00
2023-04-20T11:58:04.128Z,8.00
2023-04-20T12:00:30.597Z,6.25
2023-04-20T12:02:57.421Z,6.00
2023-04-20T12:05:24.097Z,6.00
2023-04-20T12:07:50.842Z,7.25
2023-04-20T12:10:17.301Z,3.00
2023-04-20T12:12:43.643Z,8.75
2023-04-20T12:15:10.192Z,5.25
2023-04-20T12:17:39.832Z,5.25
2023-04-20T12:20:11.565Z,5.25
2023-04-20T12:22:38.221Z,8.25
2023-04-20T12:25:05.474Z,6.00
2023-04-20T12:27:31.880Z,8.00
2023-04-20T12:29:58.278Z,8.50
2023-04-20T12:32:24.683Z,7.50
2023-04-20T12:34:51.577Z,6.75
2023-04-20T12:37:18.020Z,10.25
2023-04-20T12:39:44.536Z,8.50
2023-04-20T12:42:10.954Z,10.00
2023-04-20T12:44:37.387Z,6.25
2023-04-20T12:47:04.047Z,9.50
2023-04-20T12:49:31.945Z,7.50
2023-04-20T12:52:00.042Z,6.50
2023-04-20T12:54:26.455Z,8.75
2023-04-20T12:56:52.813Z,6.75
2023-04-20T12:59:19.255Z,7.00
2023-04-20T13:01:45.773Z,9.00
2023-04-20T13:04:12.284Z,6.75
2023-04-20T13:06:38.913Z,6.00
2023-04-20T13:09:06.190Z,5.00
2023-04-20T13:11:32.608Z,7.00
2023-04-20T13:13:59.127Z,7.25
2023-04-20T13:16:25.674Z,11.75
2023-04-20T13:18:52.081Z,8.50
2023-04-20T13:21:18.415Z,5.50
2023-04-20T13:23:44.736Z,5.00
2023-04-20T13:26:11.196Z,5.00
2023-04-20T13:28:40.267Z,6.50
2023-04-20T13:31:06.664Z,5.50
2023-04-20T13:33:33.874Z,6.00
2023-04-20T13:36:00.375Z,5.00
2023-04-20T13:38:26.906Z,1.25
2023-04-20T13:40:53.263Z,7.75
2023-04-20T13:43:21.454Z,4.75
2023-04-20T13:45:48.188Z,5.50
2023-04-20T13:48:14.621Z,6.25
2023-04-20T13:50:41.003Z,3.25
2023-04-20T13:53:07.412Z,5.00
2023-04-20T13:55:33.778Z,5.25
2023-04-20T13:58:00.186Z,7.25
2023-04-20T14:00:26.695Z,7.00
2023-04-20T14:02:53.331Z,12.00
2023-04-20T14:05:19.894Z,6.00
2023-04-20T14:07:46.298Z,4.75
2023-04-20T14:10:12.772Z,7.75
2023-04-20T14:12:39.158Z,7.00
2023-04-20T14:15:05.810Z,9.00
2023-04-20T14:17:32.198Z,11.00
2023-04-20T14:19:58.652Z,3.75
2023-04-20T14:22:25.061Z,6.50
2023-04-20T14:24:51.432Z,6.25
2023-04-20T14:27:17.896Z,5.00
2023-04-20T14:29:44.951Z,5.00
2023-04-20T14:32:11.521Z,5.00
2023-04-20T14:34:37.924Z,6.25
2023-04-20T14:37:04.431Z,8.25
2023-04-20T14:39:30.789Z,6.50
2023-04-20T14:41:57.683Z,8.00
2023-04-20T14:44:24.137Z,6.00
2023-04-20T14:46:50.656Z,6.75
2023-04-20T14:49:17.021Z,8.25
2023-04-20T14:51:43.439Z,7.25
2023-04-20T14:54:09.755Z,9.25
2023-04-20T14:56:36.078Z,6.50
2023-04-20T14:59:02.601Z,8.25
2023-04-20T15:01:29.309Z,6.50
2023-04-20T15:03:56.190Z,10.00
2023-04-20T15:06:22.895Z,9.00
2023-04-20T15:08:49.402Z,8.50
2023-04-20T15:11:15.927Z,10.50
2023-04-20T15:13:43.879Z,9.00
2023-04-20T15:16:10.470Z,7.00
2023-04-20T15:18:37.017Z,9.25
2023-04-20T15:21:03.588Z,7.25
2023-04-20T15:23:30.310Z,7.50
2023-04-20T15:25:56.732Z,5.75
2023-04-20T15:28:23.136Z,6.75
2023-04-20T15:30:49.546Z,7.00
2023-04-20T15:33:15.991Z,6.00
2023-04-20T15:35:42.540Z,7.25
2023-04-20T15:38:09.519Z,6.50
2023-04-20T15:40:35.974Z,12.00
2023-04-20T15:43:03.491Z,8.25
2023-04-20T15:45:31.132Z,9.50
2023-04-20T15:47:58.779Z,8.25
2023-04-20T15:50:25.218Z,6.00
2023-04-20T15:52:53.602Z,9.25
2023-04-20T15:55:20.182Z,9.00
2023-04-20T15:57:46.542Z,6.00
2023-04-20T16:00:13.719Z,8.25
2023-04-20T16:02:40.236Z,14.00
2023-04-20T16:05:07.111Z,7.25
2023-04-20T16:07:33.543Z,10.00
2023-04-20T16:09:59.871Z,7.75
2023-04-20T16:12:26.201Z,7.75
2023-04-20T16:14:53.824Z,8.75
2023-04-20T16:17:20.528Z,19.50
2023-04-20T16:19:46.953Z,35.75
2023-04-20T16:22:14.197Z,23.50
2023-04-20T16:24:40.724Z,30.25
2023-04-20T16:27:07.123Z,28.75
2023-04-20T16:29:33.582Z,29.50
2023-04-20T16:32:00.083Z,20.25
2023-04-20T16:34:26.602Z,16.50
2023-04-20T16:36:53.053Z,21.75
2023-04-20T16:39:19.475Z,21.50
2023-04-20T16:41:45.970Z,18.50
2023-04-20T16:44:16.592Z,19.25
2023-04-20T16:46:44.040Z,14.25
2023-04-20T16:49:10.493Z,16.00
2023-04-20T16:51:37.239Z,18.75
2023-04-20T16:54:03.678Z,13.75
2023-04-20T16:56:30.142Z,17.50
2023-04-20T16:58:56.656Z,26.50
2023-04-20T17:01:23.055Z,29.75
2023-04-20T17:03:49.524Z,13.00
2023-04-20T17:06:16.132Z,19.00
2023-04-20T17:08:42.553Z,13.25
2023-04-20T17:11:09.031Z,14.50
2023-04-20T17:13:35.563Z,13.00
2023-04-20T17:16:02.002Z,13.00
2023-04-20T17:18:28.440Z,9.75
2023-04-20T17:20:57.318Z,14.25
2023-04-20T17:23:23.853Z,19.25
2023-04-20T17:25:51.380Z,31.00
2023-04-20T17:28:17.857Z,21.75
2023-04-20T17:30:44.385Z,26.50
2023-04-20T17:33:12.371Z,24.00
2023-04-20T17:35:39.301Z,30.25
2023-04-20T17:38:05.989Z,26.00
2023-04-20T17:40:32.673Z,19.25
2023-04-20T17:42:59.028Z,31.25
2023-04-20T17:45:25.825Z,34.75
2023-04-20T17:47:53.805Z,36.50
2023-04-20T17:50:20.485Z,40.33
2023-04-20T17:52:47.028Z,61.75
2023-04-20T17:55:13.699Z,53.67
2023-04-20T17:57:40.263Z,77.00
2023-04-20T18:00:07.790Z,41.00
2023-04-20T18:02:34.448Z,40.00
2023-04-20T18:05:00.939Z,35.00
2023-04-20T18:07:28.075Z,44.67
2023-04-20T18:09:54.553Z,44.00
2023-04-20T18:12:21.114Z,43.00
2023-04-20T18:14:47.695Z,44.33
2023-04-20T18:17:14.076Z,41.50
2023-04-20T18:19:41.094Z,42.00
2023-04-20T18:22:08.055Z,40.75
2023-04-20T18:24:34.392Z,41.75
2023-04-20T18:27:01.277Z,33.25
2023-04-20T18:29:28.999Z,36.50
2023-04-20T18:31:59.235Z,44.00
2023-04-20T18:34:30.049Z,45.00
2023-04-20T18:36:57.025Z,39.25
2023-04-20T18:39:23.720Z,36.50
2023-04-20T18:41:50.058Z,41.25
2023-04-20T18:44:16.714Z,41.50
2023-04-20T18:46:43.933Z,48.75
2023-04-20T18:49:11.644Z,34.25
2023-04-20T18:51:38.208Z,28.67
2023-04-20T18:54:04.772Z,35.75
2023-04-20T18:56:31.193Z,35.25
2023-04-20T18:58:59.201Z,37.25
2023-04-20T19:01:25.985Z,38.00
2023-04-20T19:03:52.779Z,45.00
2023-04-20T19:06:19.313Z,41.67
2023-04-20T19:08:45.688Z,46.33
2023-04-20T19:11:12.362Z,46.33
2023-04-20T19:13:44.365Z,51.33
2023-04-20T19:16:11.484Z,53.50
2023-04-20T19:18:38.286Z,48.00
2023-04-20T19:21:05.812Z,42.00
2023-04-20T19:23:32.244Z,42.33
2023-04-20T19:25:58.713Z,47.33
2023-04-20T19:28:33.781Z,47.00
2023-04-20T19:31:00.438Z,48.50
2023-04-20T19:33:35.715Z,48.75
2023-04-20T19:36:08.449Z,57.00
2023-04-20T19:38:39.457Z,59.25
2023-04-20T19:41:08.782Z,62.25
2023-04-20T19:43:36.327Z,68.50
2023-04-20T19:46:02.816Z,72.25
2023-04-20T19:48:29.301Z,77.50
2023-04-20T19:50:57.739Z,101.50
2023-04-20T19:53:28.017Z,99.25
2023-04-20T19:55:54.814Z,130.50
2023-04-20T19:58:21.706Z,135.50
2023-04-20T20:00:48.135Z,131.25
2023-04-20T20:03:16.082Z,141.25
2023-04-20T20:05:43.415Z,149.67
2023-04-20T20:08:10.137Z,167.33
2023-04-20T20:10:36.522Z,178.67
2023-04-20T20:13:03.329Z,175.67
2023-04-20T20:15:29.854Z,155.33
2023-04-20T20:18:00.733Z,144.50
2023-04-20T20:23:12.981Z,130.25
2023-04-20T20:25:43.214Z,115.75
2023-04-20T20:28:10.024Z,112.25
2023-04-20T20:30:36.843Z,118.75
2023-04-20T20:33:03.771Z,121.50
2023-04-20T20:35:33.196Z,142.50
2023-04-20T20:38:00.004Z,122.50
2023-04-20T20:40:29.457Z,139.50
2023-04-20T20:42:56.846Z,116.75
2023-04-20T20:45:23.443Z,102.50
2023-04-20T20:47:49.998Z,122.25
2023-04-20T20:50:16.758Z,135.00
2023-04-20T20:52:43.277Z,117.25
2023-04-20T20:55:10.485Z,118.25
2023-04-20T20:57:37.072Z,117.50
2023-04-20T21:00:07.704Z,140.00
2023-04-20T21:02:34.373Z,95.00
2023-04-20T21:05:01.096Z,90.25
2023-04-20T21:07:27.590Z,108.50
2023-04-20T21:09:54.139Z,95.75
2023-04-20T21:12:20.653Z,101.00
2023-04-20T21:14:47.132Z,96.50
2023-04-20T21:17:13.518Z,93.75
2023-04-20T21:19:40.053Z,112.00
2023-04-20T21:22:06.527Z,118.50
2023-04-20T21:24:32.901Z,126.75
2023-04-20T21:26:59.311Z,123.50
2023-04-20T21:29:25.880Z,124.25
2023-04-20T21:31:52.660Z,119.25
2023-04-20T21:34:19.159Z,99.00
2023-04-20T21:36:45.849Z,117.00
2023-04-20T21:39:12.335Z,124.50
2023-04-20T21:41:38.947Z,113.25
2023-04-20T21:44:05.412Z,106.50
2023-04-20T21:46:32.010Z,92.75
2023-04-20T21:48:58.497Z,96.75
2023-04-20T21:51:24.964Z,105.25
2023-04-20T21:53:51.360Z,103.50
2023-04-20T21:56:18.462Z,103.75
2023-04-20T21:58:44.938Z,113.00
2023-04-20T22:01:11.511Z,94.75
2023-04-20T22:03:38.339Z,95.75
2023-04-20T22:06:04.953Z,116.50
2023-04-20T22:08:31.367Z,100.75
2023-04-20T22:10:57.814Z,111.00
2023-04-20T22:13:24.358Z,99.25
2023-04-20T22:15:51.698Z,98.75
2023-04-20T22:18:19.214Z,103.25
2023-04-20T22:20:46.181Z,103.75
2023-04-20T22:23:12.743Z,123.25
2023-04-20T22:25:40.493Z,106.00
2023-04-20T22:28:06.992Z,113.50
2023-04-20T22:30:33.501Z,125.50
2023-04-20T22:33:00.106Z,136.67
2023-04-20T22:35:26.841Z,89.67
2023-04-20T22:37:53.293Z,45.00
2023-04-20T22:40:19.771Z,145.33
2023-04-20T22:42:46.206Z,153.00
2023-04-20T22:45:12.819Z,141.33
2023-04-20T22:47:39.433Z,139.67
2023-04-20T22:50:06.259Z,156.00
2023-04-20T22:52:32.622Z,152.67
2023-04-20T22:55:00.037Z,164.33
2023-04-20T22:57:26.511Z,172.67
2023-04-20T22:59:52.969Z,150.33
2023-04-20T23:02:19.494Z,143.00
2023-04-20T23:04:46.009Z,166.33
2023-04-20T23:07:12.383Z,157.33
2023-04-20T23:09:41.315Z,159.00
2023-04-20T23:12:11.769Z,161.00
2023-04-20T23:14:39.136Z,161.33
2023-04-20T23:17:06.407Z,149.33
2023-04-20T23:19:33.449Z,170.33
2023-04-20T23:22:00.911Z,169.33
2023-04-20T23:24:27.408Z,175.00
2023-04-20T23:26:53.947Z,179.67
2023-04-20T23:29:21.804Z,185.00
2023-04-20T23:31:48.262Z,154.67
2023-04-20T23:34:14.724Z,153.67
2023-04-20T23:36:41.161Z,144.33
2023-04-20T23:39:08.226Z,140.33
2023-04-20T23:41:34.619Z,141.67
2023-04-20T23:44:01.122Z,155.00
2023-04-20T23:46:27.683Z,148.00
2023-04-20T23:48:55.472Z,124.00
2023-04-20T23:51:22.003Z,143.33
2023-04-20T23:53:48.429Z,146.67
2023-04-20T23:56:14.851Z,123.67
2023-04-20T23:58:41.385Z,149.67
